sensor_id;sensor_type;location;lat;lon;timestamp;P1;durP1;ratioP1;P2;durP2;ratioP2
5995;SDS011;3026;53.612;7.278;2023-07-13T00:00:25;6.83;;;2.43;;
5995;SDS011;3026;53.612;7.278;2023-07-13T00:02:52;7.00;;;2.17;;
5995;SDS011;3026;53.612;7.278;2023-07-13T00:05:19;8.00;;;2.23;;
5995;SDS011;3026;53.612;7.278;2023-07-13T00:07:46;7.77;;;2.17;;
5995;SDS011;3026;53.612;7.278;2023-07-13T00:10:13;6.37;;;2.23;;
5995;SDS011;3026;53.612;7.278;2023-07-13T00:12:42;6.70;;;2.33;;
5995;SDS011;3026;53.612;7.278;2023-07-13T00:15:11;10.07;;;2.43;;
5995;SDS011;3026;53.612;7.278;2023-07-13T00:17:41;6.03;;;2.67;;
5995;SDS011;3026;53.612;7.278;2023-07-13T00:20:10;5.30;;;2.10;;
5995;SDS011;3026;53.612;7.278;2023-07-13T00:22:37;6.13;;;2.27;;
5995;SDS011;3026;53.612;7.278;2023-07-13T00:25:04;7.97;;;2.33;;
5995;SDS011;3026;53.612;7.278;2023-07-13T00:27:32;7.83;;;2.60;;
5995;SDS011;3026;53.612;7.278;2023-07-13T00:30:00;5.53;;;2.27;;
5995;SDS011;3026;53.612;7.278;2023-07-13T00:32:28;6.50;;;2.27;;
5995;SDS011;3026;53.612;7.278;2023-07-13T00:34:55;4.53;;;2.00;;
5995;SDS011;3026;53.612;7.278;2023-07-13T00:37:23;7.07;;;2.13;;
5995;SDS011;3026;53.612;7.278;2023-07-13T00:39:50;6.10;;;2.50;;
5995;SDS011;3026;53.612;7.278;2023-07-13T00:42:17;6.30;;;2.50;;
5995;SDS011;3026;53.612;7.278;2023-07-13T00:47:31;10.93;;;2.77;;
5995;SDS011;3026;53.612;7.278;2023-07-13T00:49:58;7.40;;;2.40;;
5995;SDS011;3026;53.612;7.278;2023-07-13T00:52:25;11.03;;;3.03;;
5995;SDS011;3026;53.612;7.278;2023-07-13T00:54:53;7.57;;;2.60;;
5995;SDS011;3026;53.612;7.278;2023-07-13T00:57:20;9.40;;;2.63;;
5995;SDS011;3026;53.612;7.278;2023-07-13T00:59:49;8.23;;;3.20;;
5995;SDS011;3026;53.612;7.278;2023-07-13T01:02:20;6.87;;;2.67;;
5995;SDS011;3026;53.612;7.278;2023-07-13T01:04:47;10.80;;;2.70;;
5995;SDS011;3026;53.612;7.278;2023-07-13T01:07:14;9.80;;;2.80;;
5995;SDS011;3026;53.612;7.278;2023-07-13T01:09:41;13.20;;;2.93;;
5995;SDS011;3026;53.612;7.278;2023-07-13T01:12:09;8.60;;;2.40;;
5995;SDS011;3026;53.612;7.278;2023-07-13T01:14:36;11.33;;;2.80;;
5995;SDS011;3026;53.612;7.278;2023-07-13T01:17:04;8.53;;;2.37;;
5995;SDS011;3026;53.612;7.278;2023-07-13T01:19:37;9.57;;;3.13;;
5995;SDS011;3026;53.612;7.278;2023-07-13T01:22:08;7.63;;;3.27;;
5995;SDS011;3026;53.612;7.278;2023-07-13T01:24:37;7.53;;;2.67;;
5995;SDS011;3026;53.612;7.278;2023-07-13T01:27:05;11.87;;;2.90;;
5995;SDS011;3026;53.612;7.278;2023-07-13T01:29:34;7.47;;;2.73;;
5995;SDS011;3026;53.612;7.278;2023-07-13T01:32:07;8.27;;;2.57;;
5995;SDS011;3026;53.612;7.278;2023-07-13T01:34:35;7.53;;;2.67;;
5995;SDS011;3026;53.612;7.278;2023-07-13T01:37:02;12.73;;;3.00;;
5995;SDS011;3026;53.612;7.278;2023-07-13T01:39:31;8.27;;;2.87;;
5995;SDS011;3026;53.612;7.278;2023-07-13T01:41:58;14.77;;;2.87;;
5995;SDS011;3026;53.612;7.278;2023-07-13T01:44:25;12.07;;;3.93;;
5995;SDS011;3026;53.612;7.278;2023-07-13T01:46:52;9.60;;;3.30;;
5995;SDS011;3026;53.612;7.278;2023-07-13T01:49:19;8.03;;;2.70;;
5995;SDS011;3026;53.612;7.278;2023-07-13T01:51:45;7.33;;;2.53;;
5995;SDS011;3026;53.612;7.278;2023-07-13T01:54:12;9.83;;;2.60;;
5995;SDS011;3026;53.612;7.278;2023-07-13T01:56:40;11.93;;;3.27;;
5995;SDS011;3026;53.612;7.278;2023-07-13T01:59:09;11.17;;;3.07;;
5995;SDS011;3026;53.612;7.278;2023-07-13T02:01:36;9.23;;;2.70;;
5995;SDS011;3026;53.612;7.278;2023-07-13T02:04:03;7.93;;;2.80;;
5995;SDS011;3026;53.612;7.278;2023-07-13T02:06:30;13.43;;;2.97;;
5995;SDS011;3026;53.612;7.278;2023-07-13T02:08:57;9.23;;;2.87;;
5995;SDS011;3026;53.612;7.278;2023-07-13T02:11:24;11.00;;;3.13;;
5995;SDS011;3026;53.612;7.278;2023-07-13T02:13:59;9.50;;;2.60;;
5995;SDS011;3026;53.612;7.278;2023-07-13T02:16:26;6.83;;;2.80;;
5995;SDS011;3026;53.612;7.278;2023-07-13T02:18:53;8.80;;;3.10;;
5995;SDS011;3026;53.612;7.278;2023-07-13T02:21:21;5.83;;;2.40;;
5995;SDS011;3026;53.612;7.278;2023-07-13T02:23:48;5.63;;;3.00;;
5995;SDS011;3026;53.612;7.278;2023-07-13T02:26:15;10.40;;;2.47;;
5995;SDS011;3026;53.612;7.278;2023-07-13T02:28:42;5.50;;;2.30;;
5995;SDS011;3026;53.612;7.278;2023-07-13T02:31:11;7.70;;;3.00;;
5995;SDS011;3026;53.612;7.278;2023-07-13T02:33:39;8.20;;;2.60;;
5995;SDS011;3026;53.612;7.278;2023-07-13T02:36:06;10.43;;;2.80;;
5995;SDS011;3026;53.612;7.278;2023-07-13T02:38:34;10.70;;;3.37;;
5995;SDS011;3026;53.612;7.278;2023-07-13T02:41:01;6.47;;;2.13;;
5995;SDS011;3026;53.612;7.278;2023-07-13T02:43:28;9.27;;;2.60;;
5995;SDS011;3026;53.612;7.278;2023-07-13T02:45:56;9.13;;;2.80;;
5995;SDS011;3026;53.612;7.278;2023-07-13T02:48:27;10.07;;;2.87;;
5995;SDS011;3026;53.612;7.278;2023-07-13T02:50:53;8.27;;;2.50;;
5995;SDS011;3026;53.612;7.278;2023-07-13T02:53:20;5.37;;;2.93;;
5995;SDS011;3026;53.612;7.278;2023-07-13T02:55:47;5.67;;;2.40;;
5995;SDS011;3026;53.612;7.278;2023-07-13T02:58:14;9.67;;;2.43;;
5995;SDS011;3026;53.612;7.278;2023-07-13T03:00:42;6.87;;;2.37;;
5995;SDS011;3026;53.612;7.278;2023-07-13T03:03:09;10.97;;;2.40;;
5995;SDS011;3026;53.612;7.278;2023-07-13T03:05:40;8.63;;;2.50;;
5995;SDS011;3026;53.612;7.278;2023-07-13T03:08:08;9.07;;;2.87;;
5995;SDS011;3026;53.612;7.278;2023-07-13T03:10:35;7.07;;;2.33;;
5995;SDS011;3026;53.612;7.278;2023-07-13T03:13:02;8.30;;;2.37;;
5995;SDS011;3026;53.612;7.278;2023-07-13T03:15:29;9.10;;;2.60;;
5995;SDS011;3026;53.612;7.278;2023-07-13T03:17:56;7.67;;;2.77;;
5995;SDS011;3026;53.612;7.278;2023-07-13T03:20:23;10.13;;;2.57;;
5995;SDS011;3026;53.612;7.278;2023-07-13T03:22:51;5.53;;;2.37;;
5995;SDS011;3026;53.612;7.278;2023-07-13T03:25:18;7.90;;;2.77;;
5995;SDS011;3026;53.612;7.278;2023-07-13T03:27:44;7.00;;;2.43;;
5995;SDS011;3026;53.612;7.278;2023-07-13T03:30:12;6.53;;;2.57;;
5995;SDS011;3026;53.612;7.278;2023-07-13T03:32:39;12.67;;;2.40;;
5995;SDS011;3026;53.612;7.278;2023-07-13T03:35:06;5.67;;;2.30;;
5995;SDS011;3026;53.612;7.278;2023-07-13T03:37:34;12.83;;;3.20;;
5995;SDS011;3026;53.612;7.278;2023-07-13T03:40:09;7.17;;;2.77;;
5995;SDS011;3026;53.612;7.278;2023-07-13T03:42:36;14.30;;;2.73;;
5995;SDS011;3026;53.612;7.278;2023-07-13T03:45:04;7.10;;;3.00;;
5995;SDS011;3026;53.612;7.278;2023-07-13T03:47:31;8.77;;;2.07;;
5995;SDS011;3026;53.612;7.278;2023-07-13T03:49:58;6.80;;;2.30;;
5995;SDS011;3026;53.612;7.278;2023-07-13T03:52:25;9.03;;;2.83;;
5995;SDS011;3026;53.612;7.278;2023-07-13T03:54:52;3.07;;;1.87;;
5995;SDS011;3026;53.612;7.278;2023-07-13T03:57:20;8.17;;;2.37;;
5995;SDS011;3026;53.612;7.278;2023-07-13T03:59:47;6.13;;;2.40;;
5995;SDS011;3026;53.612;7.278;2023-07-13T04:02:14;4.17;;;1.63;;
5995;SDS011;3026;53.612;7.278;2023-07-13T04:04:41;6.70;;;2.30;;
5995;SDS011;3026;53.612;7.278;2023-07-13T04:07:07;3.40;;;1.50;;
5995;SDS011;3026;53.612;7.278;2023-07-13T04:09:34;5.93;;;1.93;;
5995;SDS011;3026;53.612;7.278;2023-07-13T04:12:01;5.00;;;1.63;;
5995;SDS011;3026;53.612;7.278;2023-07-13T04:14:30;4.40;;;1.60;;
5995;SDS011;3026;53.612;7.278;2023-07-13T04:16:57;4.20;;;1.70;;
5995;SDS011;3026;53.612;7.278;2023-07-13T04:19:23;4.67;;;1.50;;
5995;SDS011;3026;53.612;7.278;2023-07-13T04:21:50;4.17;;;1.60;;
5995;SDS011;3026;53.612;7.278;2023-07-13T04:24:17;4.60;;;1.80;;
5995;SDS011;3026;53.612;7.278;2023-07-13T04:26:44;5.27;;;1.70;;
5995;SDS011;3026;53.612;7.278;2023-07-13T04:29:11;7.23;;;1.73;;
5995;SDS011;3026;53.612;7.278;2023-07-13T04:31:39;4.83;;;1.83;;
5995;SDS011;3026;53.612;7.278;2023-07-13T04:34:06;7.20;;;2.07;;
5995;SDS011;3026;53.612;7.278;2023-07-13T04:36:33;5.37;;;1.90;;
5995;SDS011;3026;53.612;7.278;2023-07-13T04:39:02;7.80;;;2.00;;
5995;SDS011;3026;53.612;7.278;2023-07-13T04:41:29;5.33;;;2.13;;
5995;SDS011;3026;53.612;7.278;2023-07-13T04:43:56;4.93;;;2.30;;
5995;SDS011;3026;53.612;7.278;2023-07-13T04:46:23;3.80;;;1.80;;
5995;SDS011;3026;53.612;7.278;2023-07-13T04:48:51;6.80;;;2.47;;
5995;SDS011;3026;53.612;7.278;2023-07-13T04:51:19;9.97;;;2.50;;
5995;SDS011;3026;53.612;7.278;2023-07-13T04:53:46;5.73;;;2.37;;
5995;SDS011;3026;53.612;7.278;2023-07-13T04:56:13;5.93;;;2.37;;
5995;SDS011;3026;53.612;7.278;2023-07-13T04:58:40;12.07;;;2.77;;
5995;SDS011;3026;53.612;7.278;2023-07-13T05:01:07;7.30;;;2.13;;
5995;SDS011;3026;53.612;7.278;2023-07-13T05:03:34;6.23;;;2.20;;
5995;SDS011;3026;53.612;7.278;2023-07-13T05:06:03;10.73;;;3.27;;
5995;SDS011;3026;53.612;7.278;2023-07-13T05:08:32;7.67;;;2.80;;
5995;SDS011;3026;53.612;7.278;2023-07-13T05:11:00;9.70;;;2.80;;
5995;SDS011;3026;53.612;7.278;2023-07-13T05:13:28;10.57;;;2.70;;
5995;SDS011;3026;53.612;7.278;2023-07-13T05:15:55;8.47;;;2.73;;
5995;SDS011;3026;53.612;7.278;2023-07-13T05:18:23;6.93;;;2.63;;
5995;SDS011;3026;53.612;7.278;2023-07-13T05:20:57;10.90;;;3.13;;
5995;SDS011;3026;53.612;7.278;2023-07-13T05:23:27;8.87;;;2.80;;
5995;SDS011;3026;53.612;7.278;2023-07-13T05:25:54;12.10;;;2.87;;
5995;SDS011;3026;53.612;7.278;2023-07-13T05:28:21;14.00;;;2.73;;
5995;SDS011;3026;53.612;7.278;2023-07-13T05:30:48;7.00;;;2.60;;
5995;SDS011;3026;53.612;7.278;2023-07-13T05:33:15;14.60;;;3.70;;
5995;SDS011;3026;53.612;7.278;2023-07-13T05:35:43;13.30;;;3.20;;
5995;SDS011;3026;53.612;7.278;2023-07-13T05:38:10;9.37;;;3.00;;
5995;SDS011;3026;53.612;7.278;2023-07-13T05:40:38;10.27;;;2.57;;
5995;SDS011;3026;53.612;7.278;2023-07-13T05:43:05;9.13;;;3.30;;
5995;SDS011;3026;53.612;7.278;2023-07-13T05:45:32;8.33;;;2.70;;
5995;SDS011;3026;53.612;7.278;2023-07-13T05:47:58;12.10;;;3.37;;
5995;SDS011;3026;53.612;7.278;2023-07-13T05:50:25;9.13;;;2.93;;
5995;SDS011;3026;53.612;7.278;2023-07-13T05:52:53;11.10;;;3.23;;
5995;SDS011;3026;53.612;7.278;2023-07-13T05:55:20;13.30;;;3.00;;
5995;SDS011;3026;53.612;7.278;2023-07-13T05:57:48;10.17;;;3.50;;
5995;SDS011;3026;53.612;7.278;2023-07-13T06:00:15;14.33;;;3.87;;
5995;SDS011;3026;53.612;7.278;2023-07-13T06:02:42;8.73;;;2.70;;
5995;SDS011;3026;53.612;7.278;2023-07-13T06:05:09;7.10;;;3.00;;
5995;SDS011;3026;53.612;7.278;2023-07-13T06:07:37;10.70;;;2.87;;
5995;SDS011;3026;53.612;7.278;2023-07-13T06:10:05;9.73;;;3.70;;
5995;SDS011;3026;53.612;7.278;2023-07-13T06:12:32;12.07;;;3.13;;
5995;SDS011;3026;53.612;7.278;2023-07-13T06:15:00;11.10;;;3.57;;
5995;SDS011;3026;53.612;7.278;2023-07-13T06:17:28;10.83;;;3.00;;
5995;SDS011;3026;53.612;7.278;2023-07-13T06:19:54;8.93;;;2.90;;
5995;SDS011;3026;53.612;7.278;2023-07-13T06:22:21;10.47;;;2.90;;
5995;SDS011;3026;53.612;7.278;2023-07-13T06:24:48;8.73;;;3.00;;
5995;SDS011;3026;53.612;7.278;2023-07-13T06:27:15;11.07;;;2.80;;
5995;SDS011;3026;53.612;7.278;2023-07-13T06:29:42;10.77;;;3.60;;
5995;SDS011;3026;53.612;7.278;2023-07-13T06:32:11;9.50;;;3.40;;
5995;SDS011;3026;53.612;7.278;2023-07-13T06:34:38;11.83;;;3.73;;
5995;SDS011;3026;53.612;7.278;2023-07-13T06:37:05;8.40;;;2.53;;
5995;SDS011;3026;53.612;7.278;2023-07-13T06:39:32;9.17;;;3.43;;
5995;SDS011;3026;53.612;7.278;2023-07-13T06:41:59;10.07;;;3.90;;
5995;SDS011;3026;53.612;7.278;2023-07-13T06:44:26;11.60;;;3.50;;
5995;SDS011;3026;53.612;7.278;2023-07-13T06:46:53;10.07;;;2.97;;
5995;SDS011;3026;53.612;7.278;2023-07-13T06:49:21;9.73;;;3.70;;
5995;SDS011;3026;53.612;7.278;2023-07-13T06:51:48;7.07;;;2.57;;
5995;SDS011;3026;53.612;7.278;2023-07-13T06:54:15;8.20;;;2.60;;
5995;SDS011;3026;53.612;7.278;2023-07-13T06:56:42;8.97;;;2.90;;
5995;SDS011;3026;53.612;7.278;2023-07-13T06:59:09;12.93;;;2.90;;
5995;SDS011;3026;53.612;7.278;2023-07-13T07:01:36;9.67;;;3.17;;
5995;SDS011;3026;53.612;7.278;2023-07-13T07:04:02;11.17;;;2.93;;
5995;SDS011;3026;53.612;7.278;2023-07-13T07:06:31;11.90;;;2.60;;
5995;SDS011;3026;53.612;7.278;2023-07-13T07:08:58;3.87;;;2.37;;
5995;SDS011;3026;53.612;7.278;2023-07-13T07:11:25;10.97;;;2.80;;
5995;SDS011;3026;53.612;7.278;2023-07-13T07:13:52;9.27;;;2.70;;
5995;SDS011;3026;53.612;7.278;2023-07-13T07:16:20;10.90;;;2.57;;
5995;SDS011;3026;53.612;7.278;2023-07-13T07:18:47;11.50;;;3.13;;
5995;SDS011;3026;53.612;7.278;2023-07-13T07:21:14;5.77;;;2.20;;
5995;SDS011;3026;53.612;7.278;2023-07-13T07:23:43;7.17;;;2.33;;
5995;SDS011;3026;53.612;7.278;2023-07-13T07:26:10;5.70;;;2.43;;
5995;SDS011;3026;53.612;7.278;2023-07-13T07:28:37;6.53;;;2.00;;
5995;SDS011;3026;53.612;7.278;2023-07-13T07:31:04;5.03;;;1.63;;
5995;SDS011;3026;53.612;7.278;2023-07-13T07:33:32;4.87;;;1.40;;
5995;SDS011;3026;53.612;7.278;2023-07-13T07:35:59;3.27;;;1.47;;
5995;SDS011;3026;53.612;7.278;2023-07-13T07:38:26;4.73;;;1.63;;
5995;SDS011;3026;53.612;7.278;2023-07-13T07:40:54;3.90;;;1.50;;
5995;SDS011;3026;53.612;7.278;2023-07-13T07:43:21;3.07;;;1.23;;
5995;SDS011;3026;53.612;7.278;2023-07-13T07:45:48;4.73;;;1.40;;
5995;SDS011;3026;53.612;7.278;2023-07-13T07:48:15;4.83;;;1.70;;
5995;SDS011;3026;53.612;7.278;2023-07-13T07:50:42;5.87;;;1.37;;
5995;SDS011;3026;53.612;7.278;2023-07-13T07:53:10;5.27;;;1.50;;
5995;SDS011;3026;53.612;7.278;2023-07-13T07:55:38;7.07;;;1.47;;
5995;SDS011;3026;53.612;7.278;2023-07-13T07:58:06;5.47;;;1.50;;
5995;SDS011;3026;53.612;7.278;2023-07-13T08:00:34;4.93;;;2.23;;
5995;SDS011;3026;53.612;7.278;2023-07-13T08:03:01;2.27;;;1.20;;
5995;SDS011;3026;53.612;7.278;2023-07-13T08:05:28;2.70;;;1.37;;
5995;SDS011;3026;53.612;7.278;2023-07-13T08:07:55;2.60;;;1.37;;
5995;SDS011;3026;53.612;7.278;2023-07-13T08:10:22;2.80;;;1.50;;
5995;SDS011;3026;53.612;7.278;2023-07-13T08:12:49;1.87;;;1.30;;
5995;SDS011;3026;53.612;7.278;2023-07-13T08:15:17;3.30;;;1.20;;
5995;SDS011;3026;53.612;7.278;2023-07-13T08:17:46;6.67;;;1.60;;
5995;SDS011;3026;53.612;7.278;2023-07-13T08:20:14;3.57;;;1.20;;
5995;SDS011;3026;53.612;7.278;2023-07-13T08:22:42;3.17;;;1.30;;
5995;SDS011;3026;53.612;7.278;2023-07-13T08:25:09;3.30;;;1.20;;
5995;SDS011;3026;53.612;7.278;2023-07-13T08:27:36;2.07;;;1.00;;
5995;SDS011;3026;53.612;7.278;2023-07-13T08:30:03;3.30;;;1.20;;
5995;SDS011;3026;53.612;7.278;2023-07-13T08:32:35;4.23;;;1.50;;
5995;SDS011;3026;53.612;7.278;2023-07-13T08:35:03;4.23;;;1.40;;
5995;SDS011;3026;53.612;7.278;2023-07-13T08:37:33;1.53;;;0.93;;
5995;SDS011;3026;53.612;7.278;2023-07-13T08:40:00;2.10;;;1.30;;
5995;SDS011;3026;53.612;7.278;2023-07-13T08:42:31;7.40;;;1.23;;
5995;SDS011;3026;53.612;7.278;2023-07-13T08:45:05;4.30;;;1.40;;
5995;SDS011;3026;53.612;7.278;2023-07-13T08:47:40;3.77;;;1.40;;
5995;SDS011;3026;53.612;7.278;2023-07-13T08:50:15;3.43;;;1.20;;
5995;SDS011;3026;53.612;7.278;2023-07-13T08:52:45;2.20;;;1.13;;
5995;SDS011;3026;53.612;7.278;2023-07-13T08:55:13;1.10;;;1.00;;
5995;SDS011;3026;53.612;7.278;2023-07-13T08:57:43;6.27;;;1.50;;
5995;SDS011;3026;53.612;7.278;2023-07-13T09:00:16;1.97;;;1.00;;
5995;SDS011;3026;53.612;7.278;2023-07-13T09:02:46;3.17;;;1.23;;
5995;SDS011;3026;53.612;7.278;2023-07-13T09:05:22;3.13;;;0.90;;
5995;SDS011;3026;53.612;7.278;2023-07-13T09:08:06;5.60;;;1.30;;
5995;SDS011;3026;53.612;7.278;2023-07-13T09:10:49;2.93;;;1.30;;
5995;SDS011;3026;53.612;7.278;2023-07-13T09:13:26;4.07;;;1.40;;
5995;SDS011;3026;53.612;7.278;2023-07-13T09:15:59;4.83;;;1.43;;
5995;SDS011;3026;53.612;7.278;2023-07-13T09:18:28;2.97;;;1.23;;
5995;SDS011;3026;53.612;7.278;2023-07-13T09:21:01;3.40;;;1.20;;
5995;SDS011;3026;53.612;7.278;2023-07-13T09:23:34;9.37;;;1.47;;
5995;SDS011;3026;53.612;7.278;2023-07-13T09:26:04;4.83;;;1.50;;
5995;SDS011;3026;53.612;7.278;2023-07-13T09:28:34;1.13;;;1.03;;
5995;SDS011;3026;53.612;7.278;2023-07-13T09:31:06;3.70;;;1.20;;
5995;SDS011;3026;53.612;7.278;2023-07-13T09:33:39;2.70;;;1.47;;
5995;SDS011;3026;53.612;7.278;2023-07-13T09:36:15;3.00;;;1.10;;
5995;SDS011;3026;53.612;7.278;2023-07-13T09:38:45;2.23;;;1.20;;
5995;SDS011;3026;53.612;7.278;2023-07-13T09:41:15;1.87;;;1.13;;
5995;SDS011;3026;53.612;7.278;2023-07-13T09:44:00;2.83;;;1.10;;
5995;SDS011;3026;53.612;7.278;2023-07-13T09:46:28;4.23;;;1.43;;
5995;SDS011;3026;53.612;7.278;2023-07-13T09:48:57;3.53;;;1.00;;
5995;SDS011;3026;53.612;7.278;2023-07-13T09:51:23;2.93;;;1.23;;
5995;SDS011;3026;53.612;7.278;2023-07-13T09:53:50;4.37;;;1.70;;
5995;SDS011;3026;53.612;7.278;2023-07-13T09:56:21;3.17;;;1.40;;
5995;SDS011;3026;53.612;7.278;2023-07-13T09:58:48;5.50;;;1.47;;
5995;SDS011;3026;53.612;7.278;2023-07-13T10:01:15;5.07;;;1.03;;
5995;SDS011;3026;53.612;7.278;2023-07-13T10:03:58;3.33;;;1.50;;
5995;SDS011;3026;53.612;7.278;2023-07-13T10:06:25;4.80;;;1.40;;
5995;SDS011;3026;53.612;7.278;2023-07-13T10:08:52;2.33;;;1.43;;
5995;SDS011;3026;53.612;7.278;2023-07-13T10:11:26;2.70;;;1.07;;
5995;SDS011;3026;53.612;7.278;2023-07-13T10:13:55;4.87;;;1.80;;
5995;SDS011;3026;53.612;7.278;2023-07-13T10:16:26;2.07;;;1.10;;
5995;SDS011;3026;53.612;7.278;2023-07-13T10:19:00;3.67;;;1.30;;
5995;SDS011;3026;53.612;7.278;2023-07-13T10:21:32;2.67;;;1.30;;
5995;SDS011;3026;53.612;7.278;2023-07-13T10:24:03;3.30;;;1.10;;
5995;SDS011;3026;53.612;7.278;2023-07-13T10:26:37;3.73;;;1.13;;
5995;SDS011;3026;53.612;7.278;2023-07-13T10:29:11;2.97;;;1.33;;
5995;SDS011;3026;53.612;7.278;2023-07-13T10:31:40;2.07;;;1.07;;
5995;SDS011;3026;53.612;7.278;2023-07-13T10:34:10;3.60;;;1.33;;
5995;SDS011;3026;53.612;7.278;2023-07-13T10:36:40;3.47;;;1.20;;
5995;SDS011;3026;53.612;7.278;2023-07-13T10:39:10;2.93;;;1.10;;
5995;SDS011;3026;53.612;7.278;2023-07-13T10:41:43;2.90;;;1.20;;
5995;SDS011;3026;53.612;7.278;2023-07-13T10:44:15;5.20;;;1.30;;
5995;SDS011;3026;53.612;7.278;2023-07-13T10:46:50;1.57;;;0.90;;
5995;SDS011;3026;53.612;7.278;2023-07-13T10:49:21;2.53;;;1.00;;
5995;SDS011;3026;53.612;7.278;2023-07-13T10:51:49;4.13;;;1.10;;
5995;SDS011;3026;53.612;7.278;2023-07-13T10:54:18;1.97;;;0.73;;
5995;SDS011;3026;53.612;7.278;2023-07-13T10:56:51;2.93;;;0.93;;
5995;SDS011;3026;53.612;7.278;2023-07-13T10:59:23;2.13;;;0.90;;
5995;SDS011;3026;53.612;7.278;2023-07-13T11:01:54;3.13;;;1.27;;
5995;SDS011;3026;53.612;7.278;2023-07-13T11:04:25;4.10;;;1.20;;
5995;SDS011;3026;53.612;7.278;2023-07-13T11:06:56;4.37;;;1.40;;
5995;SDS011;3026;53.612;7.278;2023-07-13T11:09:33;2.63;;;1.40;;
5995;SDS011;3026;53.612;7.278;2023-07-13T11:12:06;5.63;;;1.70;;
5995;SDS011;3026;53.612;7.278;2023-07-13T11:14:42;7.87;;;1.87;;
5995;SDS011;3026;53.612;7.278;2023-07-13T11:20:19;8.57;;;1.60;;
5995;SDS011;3026;53.612;7.278;2023-07-13T11:25:55;5.73;;;1.50;;
5995;SDS011;3026;53.612;7.278;2023-07-13T11:28:23;3.80;;;1.30;;
5995;SDS011;3026;53.612;7.278;2023-07-13T11:31:02;7.23;;;1.80;;
5995;SDS011;3026;53.612;7.278;2023-07-13T11:33:54;9.97;;;1.60;;
5995;SDS011;3026;53.612;7.278;2023-07-13T11:36:28;7.53;;;1.30;;
5995;SDS011;3026;53.612;7.278;2023-07-13T11:39:05;5.00;;;1.40;;
5995;SDS011;3026;53.612;7.278;2023-07-13T11:41:45;4.50;;;1.67;;
5995;SDS011;3026;53.612;7.278;2023-07-13T11:44:17;4.77;;;1.10;;
5995;SDS011;3026;53.612;7.278;2023-07-13T11:46:49;7.70;;;1.50;;
5995;SDS011;3026;53.612;7.278;2023-07-13T11:49:17;5.50;;;1.40;;
5995;SDS011;3026;53.612;7.278;2023-07-13T11:51:46;4.00;;;1.17;;
5995;SDS011;3026;53.612;7.278;2023-07-13T11:54:21;3.63;;;1.23;;
5995;SDS011;3026;53.612;7.278;2023-07-13T11:56:51;4.97;;;1.20;;
5995;SDS011;3026;53.612;7.278;2023-07-13T11:59:19;5.20;;;1.70;;
5995;SDS011;3026;53.612;7.278;2023-07-13T12:01:47;3.60;;;1.73;;
5995;SDS011;3026;53.612;7.278;2023-07-13T12:04:20;5.43;;;1.20;;
5995;SDS011;3026;53.612;7.278;2023-07-13T12:06:58;6.47;;;1.80;;
5995;SDS011;3026;53.612;7.278;2023-07-13T12:09:32;5.00;;;1.73;;
5995;SDS011;3026;53.612;7.278;2023-07-13T12:12:02;5.47;;;1.30;;
5995;SDS011;3026;53.612;7.278;2023-07-13T12:14:29;6.03;;;1.30;;
5995;SDS011;3026;53.612;7.278;2023-07-13T12:17:00;3.40;;;1.53;;
5995;SDS011;3026;53.612;7.278;2023-07-13T12:19:27;4.33;;;1.20;;
5995;SDS011;3026;53.612;7.278;2023-07-13T12:21:55;3.60;;;1.27;;
5995;SDS011;3026;53.612;7.278;2023-07-13T12:24:25;3.97;;;1.43;;
5995;SDS011;3026;53.612;7.278;2023-07-13T12:26:54;5.27;;;1.50;;
5995;SDS011;3026;53.612;7.278;2023-07-13T12:29:29;8.17;;;1.77;;
5995;SDS011;3026;53.612;7.278;2023-07-13T12:31:56;6.03;;;1.30;;
5995;SDS011;3026;53.612;7.278;2023-07-13T12:34:24;4.50;;;1.30;;
5995;SDS011;3026;53.612;7.278;2023-07-13T12:36:53;3.10;;;1.30;;
5995;SDS011;3026;53.612;7.278;2023-07-13T12:39:23;7.37;;;1.50;;
5995;SDS011;3026;53.612;7.278;2023-07-13T12:42:00;8.80;;;1.40;;
5995;SDS011;3026;53.612;7.278;2023-07-13T12:44:45;3.73;;;1.40;;
5995;SDS011;3026;53.612;7.278;2023-07-13T12:47:13;4.77;;;1.60;;
5995;SDS011;3026;53.612;7.278;2023-07-13T12:49:41;2.83;;;1.27;;
5995;SDS011;3026;53.612;7.278;2023-07-13T12:52:15;5.93;;;1.53;;
5995;SDS011;3026;53.612;7.278;2023-07-13T12:54:53;3.57;;;1.20;;
5995;SDS011;3026;53.612;7.278;2023-07-13T12:57:23;2.70;;;1.20;;
5995;SDS011;3026;53.612;7.278;2023-07-13T12:59:51;6.67;;;1.70;;
5995;SDS011;3026;53.612;7.278;2023-07-13T13:02:27;3.27;;;1.63;;
5995;SDS011;3026;53.612;7.278;2023-07-13T13:04:57;3.50;;;1.27;;
5995;SDS011;3026;53.612;7.278;2023-07-13T13:07:24;3.30;;;1.13;;
5995;SDS011;3026;53.612;7.278;2023-07-13T13:09:53;6.13;;;1.90;;
5995;SDS011;3026;53.612;7.278;2023-07-13T13:12:21;4.40;;;1.70;;
5995;SDS011;3026;53.612;7.278;2023-07-13T13:14:49;4.63;;;1.90;;
5995;SDS011;3026;53.612;7.278;2023-07-13T13:17:18;4.83;;;1.20;;
5995;SDS011;3026;53.612;7.278;2023-07-13T13:19:47;5.87;;;1.90;;
5995;SDS011;3026;53.612;7.278;2023-07-13T13:22:15;4.03;;;1.43;;
5995;SDS011;3026;53.612;7.278;2023-07-13T13:24:42;3.73;;;1.67;;
5995;SDS011;3026;53.612;7.278;2023-07-13T13:27:14;6.30;;;1.77;;
5995;SDS011;3026;53.612;7.278;2023-07-13T13:29:43;5.77;;;1.80;;
5995;SDS011;3026;53.612;7.278;2023-07-13T13:32:11;3.57;;;1.83;;
5995;SDS011;3026;53.612;7.278;2023-07-13T13:34:40;4.70;;;1.80;;
5995;SDS011;3026;53.612;7.278;2023-07-13T13:37:10;5.37;;;2.07;;
5995;SDS011;3026;53.612;7.278;2023-07-13T13:39:44;7.90;;;1.60;;
5995;SDS011;3026;53.612;7.278;2023-07-13T13:42:12;7.17;;;1.67;;
5995;SDS011;3026;53.612;7.278;2023-07-13T13:44:41;6.53;;;2.17;;
5995;SDS011;3026;53.612;7.278;2023-07-13T13:47:14;6.27;;;1.90;;
5995;SDS011;3026;53.612;7.278;2023-07-13T13:49:54;8.73;;;2.20;;
5995;SDS011;3026;53.612;7.278;2023-07-13T13:52:21;5.23;;;1.57;;
5995;SDS011;3026;53.612;7.278;2023-07-13T13:54:48;2.33;;;1.50;;
5995;SDS011;3026;53.612;7.278;2023-07-13T13:57:15;6.03;;;1.80;;
5995;SDS011;3026;53.612;7.278;2023-07-13T13:59:43;3.70;;;1.80;;
5995;SDS011;3026;53.612;7.278;2023-07-13T14:02:15;5.07;;;1.50;;
5995;SDS011;3026;53.612;7.278;2023-07-13T14:04:50;2.90;;;1.67;;
5995;SDS011;3026;53.612;7.278;2023-07-13T14:07:21;6.13;;;1.93;;
5995;SDS011;3026;53.612;7.278;2023-07-13T14:09:48;3.43;;;1.70;;
5995;SDS011;3026;53.612;7.278;2023-07-13T14:12:15;5.23;;;1.87;;
5995;SDS011;3026;53.612;7.278;2023-07-13T14:14:43;3.33;;;1.83;;
5995;SDS011;3026;53.612;7.278;2023-07-13T14:17:17;5.43;;;2.00;;
5995;SDS011;3026;53.612;7.278;2023-07-13T14:19:48;4.73;;;1.70;;
5995;SDS011;3026;53.612;7.278;2023-07-13T14:22:21;5.20;;;2.27;;
5995;SDS011;3026;53.612;7.278;2023-07-13T14:24:49;6.73;;;1.80;;
5995;SDS011;3026;53.612;7.278;2023-07-13T14:27:16;3.77;;;1.90;;
5995;SDS011;3026;53.612;7.278;2023-07-13T14:29:44;5.20;;;2.17;;
5995;SDS011;3026;53.612;7.278;2023-07-13T14:32:11;3.67;;;1.63;;
5995;SDS011;3026;53.612;7.278;2023-07-13T14:34:39;5.20;;;1.50;;
5995;SDS011;3026;53.612;7.278;2023-07-13T14:37:08;3.03;;;1.80;;
5995;SDS011;3026;53.612;7.278;2023-07-13T14:39:39;5.53;;;1.87;;
5995;SDS011;3026;53.612;7.278;2023-07-13T14:42:08;4.93;;;1.80;;
5995;SDS011;3026;53.612;7.278;2023-07-13T14:44:37;8.17;;;2.03;;
5995;SDS011;3026;53.612;7.278;2023-07-13T14:47:07;10.93;;;2.20;;
5995;SDS011;3026;53.612;7.278;2023-07-13T14:49:37;4.27;;;2.17;;
5995;SDS011;3026;53.612;7.278;2023-07-13T14:52:09;3.97;;;1.90;;
5995;SDS011;3026;53.612;7.278;2023-07-13T14:54:38;9.47;;;1.70;;
5995;SDS011;3026;53.612;7.278;2023-07-13T14:57:08;4.10;;;1.37;;
5995;SDS011;3026;53.612;7.278;2023-07-13T14:59:39;7.20;;;1.90;;
5995;SDS011;3026;53.612;7.278;2023-07-13T15:02:18;3.83;;;1.63;;
5995;SDS011;3026;53.612;7.278;2023-07-13T15:04:50;4.67;;;1.60;;
5995;SDS011;3026;53.612;7.278;2023-07-13T15:07:17;3.80;;;1.70;;
5995;SDS011;3026;53.612;7.278;2023-07-13T15:09:46;7.87;;;1.90;;
5995;SDS011;3026;53.612;7.278;2023-07-13T15:12:13;6.73;;;1.53;;
5995;SDS011;3026;53.612;7.278;2023-07-13T15:14:40;3.90;;;1.73;;
5995;SDS011;3026;53.612;7.278;2023-07-13T15:17:15;5.80;;;1.70;;
5995;SDS011;3026;53.612;7.278;2023-07-13T15:19:51;6.87;;;2.43;;
5995;SDS011;3026;53.612;7.278;2023-07-13T15:22:17;7.57;;;2.00;;
5995;SDS011;3026;53.612;7.278;2023-07-13T15:24:44;6.43;;;1.80;;
5995;SDS011;3026;53.612;7.278;2023-07-13T15:27:12;3.63;;;1.40;;
5995;SDS011;3026;53.612;7.278;2023-07-13T15:29:39;6.10;;;1.90;;
5995;SDS011;3026;53.612;7.278;2023-07-13T15:32:10;7.63;;;2.27;;